Time;durP1;ratioP1;P1;durP2;ratioP2;P2;SDS_P1;SDS_P2;PMS_P1;PMS_P2;Temp;Humidity;BMP_temperature;BMP_pressure;BME280_temperature;BME280_humidity;BME280_pressure;Samples;Min_cycle;Max_cycle;Signal;HPM_P1;HPM_P2
2023/03/29 00:01:05;;;;;;;0.10;0.10;;;;;;;4.89;75.67;98891.13;5002426;28;20096;-73
2023/03/29 00:03:32;;;;;;;0.10;0.10;;;;;;;4.90;75.40;98881.91;5001757;28;20060;-73
2023/03/29 00:06:01;;;;;;;0.10;0.10;;;;;;;4.89;75.55;98874.84;5002525;28;20054;-73
2023/03/29 00:08:28;;;;;;;0.10;0.10;;;;;;;4.88;75.38;98878.66;4983147;28;20046;-73
2023/03/29 00:10:55;;;;;;;0.10;0.10;;;;;;;4.87;75.34;98871.59;4984726;28;20517;-73
2023/03/29 00:13:21;;;;;;;0.10;0.10;;;;;;;4.87;75.05;98868.06;4983530;28;20137;-72
2023/03/29 00:15:49;;;;;;;0.10;0.10;;;;;;;4.83;75.26;98863.16;4984834;28;20077;-73
2023/03/29 00:18:15;;;;;;;0.10;0.10;;;;;;;4.80;75.28;98862.88;4983919;28;20046;-72
2023/03/29 00:20:41;;;;;;;0.10;0.10;;;;;;;4.80;75.48;98869.09;4983928;28;20050;-72
2023/03/29 00:23:07;;;;;;;0.25;0.25;;;;;;;4.82;75.19;98864.25;4982438;28;20524;-71
2023/03/29 00:25:34;;;;;;;0.10;0.10;;;;;;;4.78;74.98;98863.13;4986297;28;20069;-72
2023/03/29 00:28:00;;;;;;;0.10;0.10;;;;;;;4.78;75.22;98849.59;4985936;28;20043;-72
2023/03/29 00:30:26;;;;;;;0.10;0.10;;;;;;;4.80;74.97;98857.44;4983579;28;20046;-66
2023/03/29 00:32:53;;;;;;;0.10;0.10;;;;;;;4.85;75.09;98867.50;4983398;28;20047;-66
2023/03/29 00:35:20;;;;;;;0.10;0.10;;;;;;;4.86;74.60;98856.44;4986584;28;20526;-66
2023/03/29 00:37:49;;;;;;;0.10;0.10;;;;;;;4.84;74.39;98853.16;4985996;28;20069;-67
2023/03/29 00:40:16;;;;;;;0.13;0.13;;;;;;;4.89;74.42;98849.66;4983717;28;20434;-67
2023/03/29 00:42:43;;;;;;;0.10;0.10;;;;;;;4.87;74.33;98851.81;4985653;28;20054;-66
2023/03/29 00:45:18;;;;;;;0.10;0.10;;;;;;;4.79;74.55;98853.09;4969062;28;20061;-66
2023/03/29 00:47:47;;;;;;;0.10;0.10;;;;;;;4.74;74.98;98847.66;4985105;28;20061;-66
2023/03/29 00:50:18;;;;;;;0.10;0.10;;;;;;;4.71;74.83;98850.91;4995829;28;20463;-72
2023/03/29 00:52:50;;;;;;;0.10;0.10;;;;;;;4.68;74.94;98849.50;5006585;28;20513;-72
2023/03/29 00:55:20;;;;;;;0.10;0.10;;;;;;;4.62;74.96;98843.22;5003255;28;20054;-66
2023/03/29 00:57:48;;;;;;;0.10;0.10;;;;;;;4.51;75.44;98844.22;4999142;28;20130;-67
2023/03/29 01:00:19;;;;;;;0.10;0.10;;;;;;;4.46;75.46;98852.31;4984088;28;20092;-71
2023/03/29 01:02:52;;;;;;;0.10;0.10;;;;;;;4.41;75.92;98858.47;4982624;28;20057;-72
2023/03/29 01:05:28;;;;;;;0.10;0.10;;;;;;;4.34;76.33;98841.66;4984328;28;20053;-72
2023/03/29 01:07:59;;;;;;;0.10;0.10;;;;;;;4.29;76.33;98831.59;4969148;28;20042;-73
2023/03/29 01:10:33;;;;;;;0.10;0.10;;;;;;;4.25;76.56;98839.41;4984951;28;20140;-66
2023/03/29 01:13:05;;;;;;;0.10;0.10;;;;;;;4.26;76.70;98837.53;4984683;28;20050;-66
2023/03/29 01:15:32;;;;;;;0.10;0.10;;;;;;;4.33;76.61;98840.03;4981666;28;20069;-66
2023/03/29 01:18:00;;;;;;;0.10;0.10;;;;;;;4.40;76.29;98837.91;4952395;28;20098;-66
2023/03/29 01:20:44;;;;;;;0.10;0.10;;;;;;;4.46;75.90;98836.91;4983802;28;20046;-67
2023/03/29 01:23:25;;;;;;;0.10;0.10;;;;;;;4.47;75.92;98830.41;4965868;28;20503;-66
2023/03/29 01:26:00;;;;;;;0.10;0.10;;;;;;;4.41;75.83;98812.47;4986025;28;20054;-67
2023/03/29 01:28:32;;;;;;;0.10;0.10;;;;;;;4.34;75.96;98818.09;4968249;28;20425;-67
2023/03/29 01:31:02;;;;;;;0.10;0.10;;;;;;;4.26;76.22;98803.16;4967408;28;20070;-72
2023/03/29 01:33:33;;;;;;;0.10;0.10;;;;;;;4.24;76.74;98808.00;4982895;28;20073;-72
2023/03/29 01:36:04;;;;;;;0.10;0.10;;;;;;;4.22;76.77;98796.63;4983798;28;20053;-72
2023/03/29 01:38:38;;;;;;;0.20;0.10;;;;;;;4.26;76.84;98799.63;4980964;28;20057;-72
2023/03/29 01:41:04;;;;;;;0.10;0.10;;;;;;;4.30;76.50;98792.63;4986542;28;20096;-72
2023/03/29 01:43:36;;;;;;;0.10;0.10;;;;;;;4.38;76.43;98796.75;5001254;28;20057;-72
2023/03/29 01:46:06;;;;;;;0.38;0.10;;;;;;;4.37;76.18;98801.38;5000845;28;20504;-72
2023/03/29 01:48:41;;;;;;;0.10;0.10;;;;;;;4.42;76.02;98803.28;4985889;28;20056;-72
2023/03/29 01:51:12;;;;;;;0.10;0.10;;;;;;;4.45;76.11;98799.25;5001852;28;20592;-72
2023/03/29 01:53:43;;;;;;;0.22;0.10;;;;;;;4.52;75.68;98802.53;5005636;28;20078;-71
2023/03/29 01:56:13;;;;;;;0.10;0.10;;;;;;;4.47;75.54;98786.25;5005075;28;20417;-73
2023/03/29 01:58:44;;;;;;;0.10;0.10;;;;;;;4.52;75.40;98791.69;5006367;28;20050;-73
2023/03/29 02:01:16;;;;;;;0.10;0.10;;;;;;;4.48;75.68;98783.31;5008157;28;20513;-73
2023/03/29 02:03:48;;;;;;;0.10;0.10;;;;;;;4.46;75.99;98773.81;4987092;28;20046;-72
2023/03/29 02:06:18;;;;;;;0.10;0.10;;;;;;;4.53;75.90;98766.28;5006246;28;20112;-72
2023/03/29 02:08:45;;;;;;;0.10;0.10;;;;;;;4.52;75.77;98772.75;5007023;28;20053;-73
2023/03/29 02:11:13;;;;;;;0.10;0.10;;;;;;;4.48;75.86;98768.94;5007189;28;20052;-72
2023/03/29 02:13:40;;;;;;;0.10;0.10;;;;;;;4.49;75.85;98770.56;4991772;28;20062;-72
2023/03/29 02:16:11;;;;;;;0.10;0.10;;;;;;;4.49;75.80;98773.28;4983479;28;20077;-72
2023/03/29 02:18:39;;;;;;;0.10;0.10;;;;;;;4.44;76.04;98754.31;4985658;28;20054;-72
2023/03/29 02:21:07;;;;;;;0.10;0.10;;;;;;;4.46;75.92;98758.38;4990955;28;20060;-72
2023/03/29 02:23:39;;;;;;;0.10;0.10;;;;;;;4.50;75.82;98758.66;5007157;28;20906;-74
2023/03/29 02:26:07;;;;;;;0.10;0.10;;;;;;;4.49;75.96;98748.91;4987270;28;20457;-73
2023/03/29 02:28:34;;;;;;;;;;;;;;;4.50;75.83;98751.38;4988396;28;20046;-73
2023/03/29 02:31:07;;;;;;;0.10;0.10;;;;;;;4.47;75.71;98754.59;5005092;28;19925;-73
2023/03/29 02:33:41;;;;;;;0.10;0.10;;;;;;;4.56;75.75;98756.81;4999791;28;20069;-67
2023/03/29 02:36:12;;;;;;;0.10;0.10;;;;;;;4.60;75.48;98756.03;4985630;28;20498;-67
2023/03/29 02:38:39;;;;;;;0.10;0.10;;;;;;;4.65;75.29;98747.13;4984611;28;20069;-66
2023/03/29 02:41:06;;;;;;;0.10;0.10;;;;;;;4.67;75.25;98755.81;4985271;28;20050;-67
2023/03/29 02:43:34;;;;;;;0.10;0.10;;;;;;;4.68;75.05;98752.84;4951284;28;20074;-67
2023/03/29 02:46:04;;;;;;;0.10;0.10;;;;;;;4.70;75.11;98743.66;4984520;28;20437;-66
2023/03/29 02:48:33;;;;;;;0.10;0.10;;;;;;;4.72;74.81;98744.19;4987373;28;20042;-67
2023/03/29 02:51:06;;;;;;;0.10;0.10;;;;;;;4.73;74.76;98735.78;4985374;28;20140;-67
2023/03/29 02:53:40;;;;;;;0.13;0.13;;;;;;;4.71;74.69;98737.94;4984760;28;20049;-67
2023/03/29 02:56:07;;;;;;;0.20;0.20;;;;;;;4.71;74.81;98737.16;4967800;28;20121;-67
2023/03/29 02:58:35;;;;;;;0.10;0.10;;;;;;;4.66;74.85;98736.03;4985109;28;20118;-67
2023/03/29 03:01:05;;;;;;;0.10;0.10;;;;;;;4.70;74.89;98738.22;4985626;28;20077;-67
2023/03/29 03:03:31;;;;;;;0.10;0.10;;;;;;;4.76;74.68;98731.75;4970591;28;20050;-67
2023/03/29 03:06:00;;;;;;;0.13;0.13;;;;;;;4.76;74.70;98720.91;4984011;28;20046;-67
2023/03/29 03:08:28;;;;;;;0.10;0.10;;;;;;;4.77;74.70;98741.50;4984228;28;20065;-67
2023/03/29 03:10:55;;;;;;;0.10;0.10;;;;;;;4.75;74.60;98730.94;4986420;28;20046;-67
2023/03/29 03:13:21;;;;;;;0.10;0.10;;;;;;;4.62;74.56;98715.97;4987843;28;20050;-72
2023/03/29 03:15:48;;;;;;;0.17;0.17;;;;;;;4.76;74.55;98735.28;4970666;28;20064;-72
2023/03/29 03:18:15;;;;;;;0.20;0.20;;;;;;;4.77;74.45;98736.91;5003910;28;20050;-72
2023/03/29 03:20:45;;;;;;;0.10;0.10;;;;;;;4.73;74.41;98722.25;5003912;28;20146;-73
2023/03/29 03:23:12;;;;;;;0.10;0.10;;;;;;;4.83;74.33;98722.31;5008056;28;20505;-73
2023/03/29 03:25:38;;;;;;;0.20;0.10;;;;;;;4.87;74.12;98727.19;4962677;28;20469;-73
2023/03/29 03:28:04;;;;;;;0.10;0.10;;;;;;;4.86;74.32;98712.03;4986182;28;20133;-73
2023/03/29 03:30:32;;;;;;;0.10;0.10;;;;;;;4.91;74.08;98737.25;4996345;28;20053;-72
2023/03/29 03:33:18;;;;;;;0.10;0.10;;;;;;;4.93;73.82;98723.47;4989734;28;20042;-72
2023/03/29 03:36:05;;;;;;;0.10;0.10;;;;;;;4.93;73.78;98731.59;5001953;28;20052;-67
2023/03/29 03:38:31;;;;;;;0.17;0.17;;;;;;;4.89;73.73;98728.56;5004859;28;20050;-66
2023/03/29 03:40:59;;;;;;;;;;;;;;;4.90;73.92;98730.22;5002789;28;20448;-66
2023/03/29 03:43:27;;;;;;;0.20;0.20;;;;;;;4.91;73.92;98723.72;5019844;28;19925;-67
2023/03/29 03:45:53;;;;;;;0.10;0.10;;;;;;;4.93;73.94;98726.97;5003085;28;20319;-72
2023/03/29 03:48:24;;;;;;;0.10;0.10;;;;;;;4.96;73.53;98720.22;4986803;28;20339;-72
2023/03/29 03:51:14;;;;;;;0.10;0.10;;;;;;;5.00;73.29;98720.50;4999637;28;20049;-73
2023/03/29 03:53:40;;;;;;;0.28;0.20;;;;;;;5.05;73.10;98718.63;5002947;28;20048;-72
2023/03/29 03:56:13;;;;;;;0.13;0.13;;;;;;;5.10;73.15;98717.81;5004016;28;20042;-72
2023/03/29 03:59:15;;;;;;;0.10;0.10;;;;;;;5.12;72.86;98712.94;4996614;28;20563;-72
2023/03/29 04:01:53;;;;;;;0.10;0.10;;;;;;;5.12;72.90;98715.66;4985216;28;20072;-73
2023/03/29 04:04:23;;;;;;;0.10;0.10;;;;;;;5.14;72.77;98707.28;4969916;28;20045;-67
2023/03/29 04:07:01;;;;;;;0.10;0.10;;;;;;;5.18;72.64;98705.66;5003060;28;20042;-68
2023/03/29 04:09:46;;;;;;;0.10;0.10;;;;;;;5.20;72.58;98712.44;5007349;28;20501;-67
2023/03/29 04:12:31;;;;;;;0.10;0.10;;;;;;;5.22;72.59;98704.03;5006504;28;20624;-67
2023/03/29 04:14:57;;;;;;;0.43;0.20;;;;;;;5.25;72.26;98706.25;5004582;28;20181;-66
2023/03/29 04:17:26;;;;;;;0.10;0.10;;;;;;;5.31;72.29;98704.34;4986846;28;20404;-67
2023/03/29 04:20:10;;;;;;;0.10;0.10;;;;;;;5.37;71.81;98692.44;4988718;28;20058;-66
2023/03/29 04:22:38;;;;;;;0.10;0.10;;;;;;;5.43;71.58;98688.66;4986015;28;20070;-67
2023/03/29 04:25:07;;;;;;;0.20;0.20;;;;;;;5.47;71.39;98686.22;4982901;28;20057;-67
2023/03/29 04:27:53;;;;;;;0.10;0.10;;;;;;;5.57;71.07;98691.66;4983692;28;20506;-72
2023/03/29 04:30:48;;;;;;;0.10;0.10;;;;;;;5.59;70.65;98685.97;4984119;28;20112;-73
2023/03/29 04:33:40;;;;;;;0.13;0.13;;;;;;;5.64;70.48;98675.13;4970696;28;20062;-72
2023/03/29 04:36:09;;;;;;;0.13;0.13;;;;;;;5.69;69.92;98661.56;4967527;28;20481;-73
2023/03/29 04:38:36;;;;;;;0.10;0.10;;;;;;;5.74;70.11;98677.84;4967867;28;20041;-72
2023/03/29 04:41:03;;;;;;;0.20;0.20;;;;;;;5.73;69.76;98673.50;4648573;28;9999987;-73
2023/03/29 04:43:54;;;;;;;0.10;0.10;;;;;;;5.71;69.93;98669.44;4989968;28;20433;-73
2023/03/29 04:46:26;;;;;;;0.28;0.20;;;;;;;5.70;69.88;98667.78;4979897;28;20588;-73
2023/03/29 04:49:11;;;;;;;0.10;0.10;;;;;;;5.70;69.83;98671.34;4988959;28;20046;-73
2023/03/29 04:51:42;;;;;;;0.20;0.20;;;;;;;5.72;69.54;98685.44;4999003;28;20045;-72
2023/03/29 04:54:09;;;;;;;0.10;0.10;;;;;;;5.72;69.57;98677.31;4998116;28;20042;-72
2023/03/29 04:56:55;;;;;;;0.15;0.15;;;;;;;5.74;69.34;98677.84;4980975;28;20599;-73
2023/03/29 04:59:57;;;;;;;0.17;0.17;;;;;;;5.67;69.29;98667.25;4976432;28;20704;-73
2023/03/29 05:02:44;;;;;;;0.10;0.10;;;;;;;5.88;69.12;98683.56;4950311;28;20054;-73
2023/03/29 05:05:11;;;;;;;;;;;;;;;5.97;68.71;98672.97;5000167;28;20608;-72
2023/03/29 05:07:39;;;;;;;0.17;0.17;;;;;;;5.99;68.37;98687.09;4988661;28;20269;-74
2023/03/29 05:10:07;;;;;;;0.10;0.10;;;;;;;6.02;68.37;98667.56;4998441;28;20049;-75
2023/03/29 05:12:33;;;;;;;0.20;0.20;;;;;;;6.07;68.30;98667.56;4996114;28;20638;-74
2023/03/29 05:15:00;;;;;;;0.10;0.10;;;;;;;6.14;68.10;98659.13;4984841;28;20054;-73
2023/03/29 05:17:30;;;;;;;0.10;0.10;;;;;;;6.20;67.67;98681.66;4994534;28;20050;-73
2023/03/29 05:20:09;;;;;;;0.22;0.20;;;;;;;6.24;67.74;98666.44;4981928;28;20062;-73
2023/03/29 05:22:35;;;;;;;0.25;0.20;;;;;;;6.32;67.40;98674.06;4986978;28;20054;-74
2023/03/29 05:25:04;;;;;;;0.10;0.10;;;;;;;6.36;67.08;98683.28;5017480;28;20052;-73
2023/03/29 05:27:30;;;;;;;0.10;0.10;;;;;;;6.43;66.82;98676.75;5000436;28;20133;-73
2023/03/29 05:30:06;;;;;;;0.95;0.30;;;;;;;6.48;66.81;98676.75;4984860;28;20073;-73
2023/03/29 05:32:40;;;;;;;0.47;0.22;;;;;;;6.50;66.45;98677.28;5006151;28;20505;-73
2023/03/29 05:35:08;;;;;;;;;;;;;;;6.60;66.21;98674.53;4972677;28;20147;-75
2023/03/29 05:37:34;;;;;;;0.10;0.10;;;;;;;6.64;65.92;98677.53;5022004;28;19936;-73
2023/03/29 05:40:06;;;;;;;0.10;0.10;;;;;;;6.77;65.72;98668.75;4999325;28;20137;-73
2023/03/29 05:42:41;;;;;;;0.30;0.30;;;;;;;6.85;65.16;98672.00;4974569;28;20050;-74
2023/03/29 05:45:10;;;;;;;0.20;0.20;;;;;;;6.93;64.92;98693.16;4986175;28;20069;-73
2023/03/29 05:47:36;;;;;;;0.10;0.10;;;;;;;6.99;64.71;98675.75;4987213;28;20046;-73
2023/03/29 05:50:04;;;;;;;0.15;0.15;;;;;;;7.11;64.33;98690.94;4999744;28;20050;-74
2023/03/29 05:52:30;;;;;;;0.10;0.10;;;;;;;7.13;64.09;98683.31;4993061;28;20149;-74
2023/03/29 05:54:56;;;;;;;0.20;0.20;;;;;;;7.11;64.03;98683.59;4986410;28;20054;-73
2023/03/29 05:57:24;;;;;;;0.20;0.20;;;;;;;7.09;64.04;98670.25;4986775;28;20050;-73
2023/03/29 05:59:50;;;;;;;0.10;0.10;;;;;;;7.12;64.28;98676.25;4988100;28;20164;-73
2023/03/29 06:02:17;;;;;;;0.25;0.20;;;;;;;7.10;64.02;98676.53;4990089;28;20045;-73
2023/03/29 06:04:49;;;;;;;0.10;0.10;;;;;;;7.05;64.07;98682.00;4975351;28;20050;-73
2023/03/29 06:07:15;;;;;;;0.10;0.10;;;;;;;7.00;64.09;98676.56;4985723;28;20042;-73
2023/03/29 06:09:48;;;;;;;0.20;0.20;;;;;;;7.03;64.02;98670.59;4986977;28;20141;-73
2023/03/29 06:12:18;;;;;;;0.10;0.10;;;;;;;7.08;63.88;98670.56;4980037;28;20586;-73
2023/03/29 06:15:02;;;;;;;0.20;0.20;;;;;;;7.07;63.75;98671.66;4977202;28;20042;-73
2023/03/29 06:17:35;;;;;;;0.20;0.20;;;;;;;7.09;63.67;98686.56;5003892;28;20046;-73
2023/03/29 06:20:05;;;;;;;0.10;0.10;;;;;;;7.12;63.55;98677.06;4989323;28;20328;-72
2023/03/29 06:22:32;;;;;;;0.10;0.10;;;;;;;7.12;63.36;98660.75;5013646;28;20116;-73
2023/03/29 06:24:58;;;;;;;0.47;0.22;;;;;;;7.17;63.10;98681.66;4985211;28;20069;-73
2023/03/29 06:27:29;;;;;;;0.63;0.25;;;;;;;7.16;63.30;98661.81;4992008;28;20398;-73
2023/03/29 06:29:58;;;;;;;0.20;0.20;;;;;;;7.24;63.03;98671.28;4997394;28;20492;-72
2023/03/29 06:32:24;;;;;;;1.17;0.20;;;;;;;7.29;62.83;98674.00;4997630;28;20084;-74
2023/03/29 06:35:01;;;;;;;0.20;0.20;;;;;;;7.35;62.40;98672.84;5014494;28;20047;-73
2023/03/29 06:37:52;;;;;;;0.43;0.20;;;;;;;7.39;62.31;98667.66;5001651;28;20076;-74
2023/03/29 06:40:31;;;;;;;0.15;0.15;;;;;;;7.35;62.47;98667.41;4988194;28;20525;-72
2023/03/29 06:42:58;;;;;;;0.15;0.15;;;;;;;7.35;62.95;98658.47;4983593;28;20116;-76
2023/03/29 06:45:48;;;;;;;0.28;0.15;;;;;;;7.35;63.31;98677.50;5003956;28;20079;-74
2023/03/29 06:48:27;;;;;;;0.15;0.15;;;;;;;7.32;63.70;98672.59;5004076;28;20053;-73
2023/03/29 06:50:54;;;;;;;0.38;0.10;;;;;;;7.28;64.10;98668.81;5004988;28;20058;-74
2023/03/29 06:53:25;;;;;;;0.10;0.10;;;;;;;7.23;64.48;98664.22;5007105;28;20457;-74
2023/03/29 06:56:03;;;;;;;0.10;0.10;;;;;;;7.15;64.95;98667.53;4986024;28;20053;-74
2023/03/29 06:58:39;;;;;;;0.10;0.10;;;;;;;7.08;65.02;98640.66;5001151;28;20054;-66
2023/03/29 07:01:27;;;;;;;0.10;0.10;;;;;;;7.07;65.57;98677.09;4999007;28;20104;-66
2023/03/29 07:04:08;;;;;;;0.15;0.15;;;;;;;7.10;65.14;98662.94;4984847;28;20054;-66
2023/03/29 07:07:00;;;;;;;0.10;0.10;;;;;;;7.07;65.32;98672.44;5005471;28;20133;-74
2023/03/29 07:09:30;;;;;;;0.15;0.15;;;;;;;7.06;66.00;98670.03;5021533;28;20416;-73
2023/03/29 07:12:23;;;;;;;0.10;0.10;;;;;;;7.00;66.70;98660.25;4999586;28;20292;-74
2023/03/29 07:14:50;;;;;;;0.30;0.20;;;;;;;6.98;67.44;98657.00;5000656;28;20073;-74
2023/03/29 07:17:18;;;;;;;0.10;0.10;;;;;;;7.00;67.76;98677.38;5018876;28;20046;-74
2023/03/29 07:19:44;;;;;;;;;;;;;;;7.03;67.39;98657.00;5003697;28;20232;-74
2023/03/29 07:22:28;;;;;;;0.20;0.20;;;;;;;7.12;66.49;98668.09;4996170;28;20038;-73
2023/03/29 07:24:59;;;;;;;0.20;0.20;;;;;;;7.19;66.30;98660.44;4999709;28;20045;-73
2023/03/29 07:27:26;;;;;;;0.20;0.20;;;;;;;7.27;66.06;98664.47;5018121;28;20064;-74
2023/03/29 07:29:52;;;;;;;0.10;0.10;;;;;;;7.29;66.01;98660.38;5000156;28;20060;-74
2023/03/29 07:32:20;;;;;;;0.10;0.10;;;;;;;7.28;65.93;98650.63;4985410;28;20046;-74
2023/03/29 07:34:56;;;;;;;0.32;0.20;;;;;;;7.27;65.69;98654.44;5002563;28;20049;-73
2023/03/29 07:37:29;;;;;;;0.20;0.20;;;;;;;7.43;65.48;98662.50;5000997;28;20042;-74
2023/03/29 07:39:56;;;;;;;0.20;0.20;;;;;;;7.59;65.17;98666.72;4983771;28;20058;-74
2023/03/29 07:42:51;;;;;;;0.20;0.20;;;;;;;7.75;65.13;98661.97;5000338;28;20057;-74
2023/03/29 07:45:21;;;;;;;0.20;0.20;;;;;;;7.86;64.74;98662.69;5021058;28;20042;-74
2023/03/29 07:47:58;;;;;;;0.20;0.20;;;;;;;7.86;64.67;98662.69;5016392;28;20057;-74
2023/03/29 07:50:27;;;;;;;0.20;0.20;;;;;;;7.85;65.02;98657.56;5000999;28;20073;-74
2023/03/29 07:52:59;;;;;;;0.10;0.10;;;;;;;7.79;64.89;98654.06;5016903;28;20049;-73
2023/03/29 07:55:26;;;;;;;0.20;0.20;;;;;;;7.69;65.32;98654.97;4986322;28;20528;-74
2023/03/29 07:58:19;;;;;;;0.20;0.20;;;;;;;7.79;65.60;98648.63;5001441;28;20045;-66
2023/03/29 08:00:45;;;;;;;0.20;0.20;;;;;;;7.86;65.70;98654.53;4998468;28;20050;-66
2023/03/29 08:03:35;;;;;;;0.10;0.10;;;;;;;7.99;65.59;98665.88;4997957;28;20124;-66
2023/03/29 08:06:02;;;;;;;0.10;0.10;;;;;;;8.05;65.62;98670.19;5001946;28;20041;-66
2023/03/29 08:08:28;;;;;;;0.10;0.10;;;;;;;8.03;65.47;98666.91;4994094;28;20421;-66
2023/03/29 08:10:58;;;;;;;0.57;0.20;;;;;;;7.98;65.70;98673.25;4994548;28;20042;-66
2023/03/29 08:13:40;;;;;;;0.20;0.20;;;;;;;7.92;66.18;98674.38;4998802;28;20133;-66
2023/03/29 08:16:26;;;;;;;0.20;0.20;;;;;;;7.96;66.22;98675.44;5002309;28;20112;-66
2023/03/29 08:19:06;;;;;;;0.10;0.10;;;;;;;7.96;66.66;98661.84;4997104;28;20531;-66
2023/03/29 08:22:08;;;;;;;0.20;0.20;;;;;;;8.05;66.95;98667.47;5003835;28;20050;-66
2023/03/29 08:24:57;;;;;;;0.20;0.20;;;;;;;8.14;66.39;98654.84;5007645;28;20050;-66
2023/03/29 08:27:29;;;;;;;0.45;0.20;;;;;;;8.30;66.53;98650.06;4984990;28;20056;-66
2023/03/29 08:29:55;;;;;;;0.20;0.20;;;;;;;8.36;65.76;98657.09;5003376;28;20052;-66
2023/03/29 08:32:21;;;;;;;0.13;0.13;;;;;;;8.36;65.76;98651.63;5000238;28;20053;-66
2023/03/29 08:34:49;;;;;;;0.20;0.20;;;;;;;8.37;65.44;98653.25;5003572;28;20421;-66
2023/03/29 08:37:24;;;;;;;0.20;0.20;;;;;;;8.42;65.62;98659.75;4998994;28;20060;-66
2023/03/29 08:39:53;;;;;;;0.20;0.20;;;;;;;8.50;64.82;98653.72;4985532;28;20417;-74
2023/03/29 08:43:12;;;;;;;0.10;0.10;;;;;;;8.51;64.79;98658.06;4974454;28;20566;-74
2023/03/29 08:46:08;;;;;;;0.10;0.10;;;;;;;8.20;66.10;98656.44;5001269;28;20421;-74
2023/03/29 08:48:41;;;;;;;0.10;0.10;;;;;;;7.98;67.81;98639.75;5003478;28;20045;-74
2023/03/29 08:51:18;;;;;;;0.13;0.13;;;;;;;7.85;69.09;98627.63;5018339;28;20044;-74
2023/03/29 08:53:48;;;;;;;0.20;0.20;;;;;;;7.66;70.25;98634.56;5004399;28;20061;-75
2023/03/29 08:56:28;;;;;;;0.10;0.10;;;;;;;7.54;71.68;98639.53;5001465;28;20045;-74
2023/03/29 08:59:18;;;;;;;0.10;0.10;;;;;;;7.44;72.34;98651.31;4998005;28;20038;-74
2023/03/29 09:01:47;;;;;;;0.10;0.10;;;;;;;7.36;73.24;98654.66;5000221;28;20108;-74
2023/03/29 09:04:17;;;;;;;0.20;0.20;;;;;;;7.35;74.18;98642.16;5002512;28;20100;-74
2023/03/29 09:07:08;;;;;;;0.13;0.13;;;;;;;7.41;74.58;98632.03;4988679;28;20140;-66
2023/03/29 09:09:41;;;;;;;0.20;0.20;;;;;;;7.42;74.51;98642.63;5018390;28;20141;-66
2023/03/29 09:12:28;;;;;;;0.10;0.10;;;;;;;7.55;74.46;98641.16;5002060;28;20104;-67
2023/03/29 09:15:09;;;;;;;0.20;0.20;;;;;;;7.72;74.19;98643.50;4996853;28;20137;-66
2023/03/29 09:17:49;;;;;;;0.10;0.10;;;;;;;7.79;74.26;98641.25;4997983;28;20385;-66
2023/03/29 09:20:26;;;;;;;0.52;0.20;;;;;;;7.82;74.17;98633.66;4999340;28;20193;-74
2023/03/29 09:23:07;;;;;;;0.10;0.10;;;;;;;7.86;73.98;98648.31;4999848;28;20103;-74
2023/03/29 09:25:59;;;;;;;0.10;0.10;;;;;;;7.79;74.20;98635.00;5016297;28;20101;-74
2023/03/29 09:28:48;;;;;;;0.17;0.17;;;;;;;7.65;74.84;98632.16;5015614;28;20034;-73
2023/03/29 09:31:20;;;;;;;0.10;0.10;;;;;;;7.53;75.65;98643.38;4994587;28;20054;-74
2023/03/29 09:33:52;;;;;;;0.10;0.10;;;;;;;7.36;76.43;98641.03;4976026;28;20042;-73
2023/03/29 09:36:32;;;;;;;0.10;0.10;;;;;;;7.33;77.55;98644.31;4980671;28;20050;-73
2023/03/29 09:39:02;;;;;;;0.10;0.10;;;;;;;7.26;78.14;98644.66;4993402;28;20053;-74
2023/03/29 09:41:37;;;;;;;0.20;0.20;;;;;;;7.18;79.07;98648.78;4997068;28;20058;-73
2023/03/29 09:44:08;;;;;;;0.10;0.10;;;;;;;7.11;79.61;98648.25;4996883;28;20065;-73
2023/03/29 09:46:40;;;;;;;0.10;0.10;;;;;;;6.98;80.44;98640.69;4991804;28;20145;-73
2023/03/29 09:49:13;;;;;;;0.10;0.10;;;;;;;6.98;80.86;98644.25;4997595;28;20097;-73
2023/03/29 09:51:41;;;;;;;0.20;0.20;;;;;;;6.95;81.06;98645.59;4999365;28;20061;-66
2023/03/29 09:54:11;;;;;;;0.10;0.10;;;;;;;6.98;80.95;98641.53;5000736;28;20074;-66
2023/03/29 09:56:58;;;;;;;0.60;0.10;;;;;;;7.10;81.04;98646.63;4998846;28;20156;-73
2023/03/29 09:59:24;;;;;;;0.10;0.10;;;;;;;7.09;80.53;98634.94;5000337;28;20057;-73
2023/03/29 10:01:50;;;;;;;0.10;0.10;;;;;;;7.21;80.52;98645.47;5002100;28;20136;-73
2023/03/29 10:04:17;;;;;;;0.32;0.20;;;;;;;6.98;80.27;98602.66;5004635;28;20535;-65
2023/03/29 10:06:51;;;;;;;0.10;0.10;;;;;;;7.24;80.25;98631.31;4999566;28;20042;-66
2023/03/29 10:09:22;;;;;;;0.10;0.10;;;;;;;7.29;80.37;98640.53;5018451;28;20069;-66
2023/03/29 10:11:54;;;;;;;0.17;0.17;;;;;;;7.35;80.58;98645.66;5002760;28;20045;-66
2023/03/29 10:14:30;;;;;;;0.15;0.15;;;;;;;7.29;81.24;98638.63;5003157;28;20446;-66
2023/03/29 10:16:57;;;;;;;0.10;0.10;;;;;;;7.22;81.97;98627.25;5004951;28;20041;-65
2023/03/29 10:19:29;;;;;;;0.10;0.10;;;;;;;7.13;81.98;98618.88;5006760;28;20056;-67
2023/03/29 10:21:58;;;;;;;0.10;0.10;;;;;;;7.26;81.94;98635.66;4994980;28;20066;-66
2023/03/29 10:24:27;;;;;;;0.15;0.15;;;;;;;7.23;82.08;98642.47;4997012;28;20295;-66
2023/03/29 10:26:56;;;;;;;0.20;0.20;;;;;;;7.19;82.35;98636.81;5003830;28;20137;-66
2023/03/29 10:29:24;;;;;;;0.20;0.10;;;;;;;7.18;82.31;98634.34;5006071;28;20054;-66
2023/03/29 10:31:52;;;;;;;0.13;0.13;;;;;;;7.11;82.80;98623.78;5004548;28;20168;-66
2023/03/29 10:34:24;;;;;;;0.20;0.20;;;;;;;7.18;83.18;98628.91;4989149;28;20133;-66
2023/03/29 10:36:57;;;;;;;0.10;0.10;;;;;;;7.18;83.83;98624.31;4974372;28;20074;-67
2023/03/29 10:39:29;;;;;;;0.10;0.10;;;;;;;7.22;84.28;98619.91;5003620;28;20172;-66
2023/03/29 10:41:57;;;;;;;0.10;0.10;;;;;;;7.23;83.62;98626.16;5003885;28;20049;-74
2023/03/29 10:44:28;;;;;;;0.10;0.10;;;;;;;7.21;83.11;98617.47;5004446;28;20564;-73
2023/03/29 10:47:05;;;;;;;0.20;0.20;;;;;;;7.15;83.49;98613.16;4981681;28;20054;-74
2023/03/29 10:49:39;;;;;;;0.20;0.20;;;;;;;7.16;83.94;98612.88;5003502;28;20038;-74
2023/03/29 10:52:07;;;;;;;0.17;0.17;;;;;;;7.15;84.24;98619.41;5004353;28;20057;-73
2023/03/29 10:54:35;;;;;;;0.10;0.10;;;;;;;7.09;84.45;98621.34;5005164;28;20054;-66
2023/03/29 10:57:08;;;;;;;0.10;0.10;;;;;;;7.05;84.87;98624.91;5004122;28;20046;-73
2023/03/29 10:59:43;;;;;;;0.20;0.20;;;;;;;7.02;85.55;98620.84;5004499;28;20069;-73
2023/03/29 11:02:45;;;;;;;0.20;0.20;;;;;;;7.03;86.16;98622.47;5006102;28;20054;-66
2023/03/29 11:05:24;;;;;;;0.10;0.10;;;;;;;7.03;86.23;98629.81;5004890;28;20050;-66
2023/03/29 11:08:04;;;;;;;0.20;0.20;;;;;;;7.04;86.29;98623.28;5005342;28;20042;-66
2023/03/29 11:10:44;;;;;;;0.13;0.13;;;;;;;6.97;86.30;98622.78;5003508;28;20781;-73
2023/03/29 11:13:20;;;;;;;0.10;0.10;;;;;;;6.79;86.66;98603.28;4975180;28;20049;-73
2023/03/29 11:15:59;;;;;;;0.20;0.20;;;;;;;6.89;87.24;98611.41;5007152;28;20049;-73
2023/03/29 11:18:42;;;;;;;0.20;0.20;;;;;;;6.86;87.63;98625.53;5002597;28;20104;-73
2023/03/29 11:21:17;;;;;;;0.20;0.20;;;;;;;6.72;87.61;98606.31;5006220;28;20042;-73
2023/03/29 11:23:56;;;;;;;0.20;0.20;;;;;;;6.67;87.75;98596.28;4988118;28;20123;-74
2023/03/29 11:26:32;;;;;;;0.10;0.10;;;;;;;6.72;87.98;98614.47;5004668;28;20056;-73
2023/03/29 11:29:04;;;;;;;0.10;0.10;;;;;;;6.67;88.01;98622.63;5004762;28;20066;-74
2023/03/29 11:31:38;;;;;;;0.15;0.15;;;;;;;6.62;88.55;98614.50;5006713;28;20073;-74
2023/03/29 11:34:20;;;;;;;0.10;0.10;;;;;;;6.60;88.83;98617.50;5002806;28;20074;-75
2023/03/29 11:36:52;;;;;;;0.20;0.20;;;;;;;6.57;88.76;98625.38;5007926;28;20437;-73
2023/03/29 11:39:29;;;;;;;0.20;0.20;;;;;;;6.57;88.94;98628.94;5004723;28;20053;-73
2023/03/29 11:42:04;;;;;;;0.20;0.20;;;;;;;6.61;89.10;98637.31;5002913;28;20061;-73
2023/03/29 11:44:30;;;;;;;0.20;0.20;;;;;;;6.58;89.35;98625.13;4987629;28;20591;-66
2023/03/29 11:47:00;;;;;;;0.20;0.20;;;;;;;6.62;89.43;98628.06;5002202;28;20050;-66
2023/03/29 11:49:32;;;;;;;0.20;0.20;;;;;;;6.63;89.68;98619.66;5006689;28;20200;-66
2023/03/29 11:52:03;;;;;;;0.20;0.20;;;;;;;6.66;89.62;98632.69;5005530;28;20132;-66
2023/03/29 11:54:34;;;;;;;0.10;0.10;;;;;;;6.66;89.54;98629.97;5004077;28;20144;-66
2023/03/29 11:57:11;;;;;;;0.10;0.10;;;;;;;6.64;89.84;98645.72;5005307;28;20144;-74
2023/03/29 11:59:41;;;;;;;0.20;0.20;;;;;;;6.59;90.13;98629.47;4981360;28;20069;-73
2023/03/29 12:02:15;;;;;;;0.10;0.10;;;;;;;6.60;89.88;98635.69;5017148;28;20065;-66
2023/03/29 12:04:47;;;;;;;0.10;0.10;;;;;;;6.61;89.95;98618.28;5001731;28;20476;-66
2023/03/29 12:07:17;;;;;;;0.20;0.20;;;;;;;6.56;90.05;98634.63;5004495;28;20054;-66
2023/03/29 12:09:48;;;;;;;0.20;0.20;;;;;;;6.58;90.38;98627.84;5004097;28;20160;-66
2023/03/29 12:12:20;;;;;;;0.13;0.13;;;;;;;6.60;90.12;98633.81;4998773;28;20094;-66